sensor_id;sensor_type;location;lat;lon;timestamp;temperature;humidity
24232;DHT22;12364;47.810;8.810;2023-07-13T03:48:02;22.70;99.90
24232;DHT22;12364;47.810;8.810;2023-07-13T03:50:29;22.80;99.90
24232;DHT22;12364;47.810;8.810;2023-07-13T03:52:57;22.70;99.90
24232;DHT22;12364;47.810;8.810;2023-07-13T03:55:24;22.70;99.90
24232;DHT22;12364;47.810;8.810;2023-07-13T03:57:57;22.70;99.90
24232;DHT22;12364;47.810;8.810;2023-07-13T04:00:25;22.70;99.90
24232;DHT22;12364;47.810;8.810;2023-07-13T04:02:52;22.70;99.90
24232;DHT22;12364;47.810;8.810;2023-07-13T04:05:21;22.70;99.90
24232;DHT22;12364;47.810;8.810;2023-07-13T04:07:48;22.60;99.90
24232;DHT22;12364;47.810;8.810;2023-07-13T04:10:15;22.60;99.90
24232;DHT22;12364;47.810;8.810;2023-07-13T04:12:42;22.50;99.90
24232;DHT22;12364;47.810;8.810;2023-07-13T04:15:09;22.50;99.90
24232;DHT22;12364;47.810;8.810;2023-07-13T04:17:36;22.50;99.90
24232;DHT22;12364;47.810;8.810;2023-07-13T04:20:03;22.50;99.90
24232;DHT22;12364;47.810;8.810;2023-07-13T04:22:31;22.50;99.90
24232;DHT22;12364;47.810;8.810;2023-07-13T04:24:58;22.50;99.90
24232;DHT22;12364;47.810;8.810;2023-07-13T04:27:25;22.50;99.90
24232;DHT22;12364;47.810;8.810;2023-07-13T04:29:52;22.50;99.90
24232;DHT22;12364;47.810;8.810;2023-07-13T04:32:19;22.50;99.90
24232;DHT22;12364;47.810;8.810;2023-07-13T04:34:46;22.50;99.90
24232;DHT22;12364;47.810;8.810;2023-07-13T04:37:13;22.50;99.90
24232;DHT22;12364;47.810;8.810;2023-07-13T04:39:40;22.50;99.90
24232;DHT22;12364;47.810;8.810;2023-07-13T04:42:07;22.50;99.90
24232;DHT22;12364;47.810;8.810;2023-07-13T04:44:34;22.40;99.90
24232;DHT22;12364;47.810;8.810;2023-07-13T04:47:01;22.40;99.90
24232;DHT22;12364;47.810;8.810;2023-07-13T04:49:28;22.40;99.90
24232;DHT22;12364;47.810;8.810;2023-07-13T04:51:55;22.50;99.90
24232;DHT22;12364;47.810;8.810;2023-07-13T04:54:22;22.40;99.90
24232;DHT22;12364;47.810;8.810;2023-07-13T04:56:49;22.50;99.90
24232;DHT22;12364;47.810;8.810;2023-07-13T04:59:16;22.50;99.90
24232;DHT22;12364;47.810;8.810;2023-07-13T05:01:43;22.60;99.90
24232;DHT22;12364;47.810;8.810;2023-07-13T05:04:10;22.40;99.90
24232;DHT22;12364;47.810;8.810;2023-07-13T05:06:37;22.40;99.90
24232;DHT22;12364;47.810;8.810;2023-07-13T05:09:05;22.40;99.90
24232;DHT22;12364;47.810;8.810;2023-07-13T05:11:33;22.50;99.90
24232;DHT22;12364;47.810;8.810;2023-07-13T05:14:00;22.50;99.90
24232;DHT22;12364;47.810;8.810;2023-07-13T05:16:28;22.50;99.90
24232;DHT22;12364;47.810;8.810;2023-07-13T05:18:55;22.40;99.90
24232;DHT22;12364;47.810;8.810;2023-07-13T05:21:22;22.40;99.90
24232;DHT22;12364;47.810;8.810;2023-07-13T05:23:49;22.40;99.90
24232;DHT22;12364;47.810;8.810;2023-07-13T05:26:16;22.40;99.90
24232;DHT22;12364;47.810;8.810;2023-07-13T05:28:43;22.50;99.90
24232;DHT22;12364;47.810;8.810;2023-07-13T05:31:10;22.50;99.90
24232;DHT22;12364;47.810;8.810;2023-07-13T05:33:38;22.50;99.90
24232;DHT22;12364;47.810;8.810;2023-07-13T05:36:05;22.50;99.90
24232;DHT22;12364;47.810;8.810;2023-07-13T05:38:32;22.50;99.90
24232;DHT22;12364;47.810;8.810;2023-07-13T05:40:59;22.50;99.90
24232;DHT22;12364;47.810;8.810;2023-07-13T05:43:31;22.70;99.90
24232;DHT22;12364;47.810;8.810;2023-07-13T05:45:58;22.60;99.90
24232;DHT22;12364;47.810;8.810;2023-07-13T05:48:26;22.60;99.90
24232;DHT22;12364;47.810;8.810;2023-07-13T05:50:54;22.50;99.90
24232;DHT22;12364;47.810;8.810;2023-07-13T05:53:21;22.50;99.90
24232;DHT22;12364;47.810;8.810;2023-07-13T05:55:48;22.50;99.90
24232;DHT22;12364;47.810;8.810;2023-07-13T05:58:17;22.30;99.90
24232;DHT22;12364;47.810;8.810;2023-07-13T06:00:44;22.20;99.90
24232;DHT22;12364;47.810;8.810;2023-07-13T06:03:12;22.20;99.80
24232;DHT22;12364;47.810;8.810;2023-07-13T06:05:39;22.30;99.80
24232;DHT22;12364;47.810;8.810;2023-07-13T06:08:06;22.30;99.40
24232;DHT22;12364;47.810;8.810;2023-07-13T06:10:34;22.30;99.20
24232;DHT22;12364;47.810;8.810;2023-07-13T06:13:02;22.20;99.00
24232;DHT22;12364;47.810;8.810;2023-07-13T06:15:30;22.10;99.30
24232;DHT22;12364;47.810;8.810;2023-07-13T06:17:56;22.10;99.60
24232;DHT22;12364;47.810;8.810;2023-07-13T06:20:24;22.20;99.90
24232;DHT22;12364;47.810;8.810;2023-07-13T06:22:50;22.10;99.80
24232;DHT22;12364;47.810;8.810;2023-07-13T06:25:18;22.20;99.90
24232;DHT22;12364;47.810;8.810;2023-07-13T06:27:45;22.30;99.90
24232;DHT22;12364;47.810;8.810;2023-07-13T06:30:12;22.30;99.30
24232;DHT22;12364;47.810;8.810;2023-07-13T06:32:39;22.30;98.90
24232;DHT22;12364;47.810;8.810;2023-07-13T06:35:07;22.30;98.60
24232;DHT22;12364;47.810;8.810;2023-07-13T06:37:35;22.30;96.80
24232;DHT22;12364;47.810;8.810;2023-07-13T06:40:02;22.30;97.10
24232;DHT22;12364;47.810;8.810;2023-07-13T06:42:30;22.40;96.90
24232;DHT22;12364;47.810;8.810;2023-07-13T06:44:57;22.40;96.10
24232;DHT22;12364;47.810;8.810;2023-07-13T06:47:24;22.50;96.00
24232;DHT22;12364;47.810;8.810;2023-07-13T06:49:51;22.50;94.70
24232;DHT22;12364;47.810;8.810;2023-07-13T06:52:18;22.60;95.60
24232;DHT22;12364;47.810;8.810;2023-07-13T06:54:45;22.50;95.40
24232;DHT22;12364;47.810;8.810;2023-07-13T06:57:12;22.60;94.90
24232;DHT22;12364;47.810;8.810;2023-07-13T06:59:39;22.60;95.10
24232;DHT22;12364;47.810;8.810;2023-07-13T07:02:07;22.60;95.10
24232;DHT22;12364;47.810;8.810;2023-07-13T07:04:35;22.70;95.10
24232;DHT22;12364;47.810;8.810;2023-07-13T07:07:02;22.70;94.90
24232;DHT22;12364;47.810;8.810;2023-07-13T07:09:30;22.70;94.90
24232;DHT22;12364;47.810;8.810;2023-07-13T07:11:58;22.70;94.40
24232;DHT22;12364;47.810;8.810;2023-07-13T07:14:30;22.70;94.20
24232;DHT22;12364;47.810;8.810;2023-07-13T07:16:58;22.60;94.00
24232;DHT22;12364;47.810;8.810;2023-07-13T07:19:27;22.60;94.30
24232;DHT22;12364;47.810;8.810;2023-07-13T07:21:54;22.70;94.40
24232;DHT22;12364;47.810;8.810;2023-07-13T07:24:21;22.70;94.40
24232;DHT22;12364;47.810;8.810;2023-07-13T07:26:48;22.70;94.30
24232;DHT22;12364;47.810;8.810;2023-07-13T07:29:18;22.80;94.00
24232;DHT22;12364;47.810;8.810;2023-07-13T07:31:48;22.80;93.50
24232;DHT22;12364;47.810;8.810;2023-07-13T07:34:30;22.80;93.10
24232;DHT22;12364;47.810;8.810;2023-07-13T07:37:00;22.80;93.80
24232;DHT22;12364;47.810;8.810;2023-07-13T07:39:30;22.90;93.40
24232;DHT22;12364;47.810;8.810;2023-07-13T07:41:57;23.00;93.40
24232;DHT22;12364;47.810;8.810;2023-07-13T07:44:25;23.10;93.20
24232;DHT22;12364;47.810;8.810;2023-07-13T07:46:53;23.10;93.50
24232;DHT22;12364;47.810;8.810;2023-07-13T07:49:21;23.20;93.40
24232;DHT22;12364;47.810;8.810;2023-07-13T07:51:48;23.20;93.80
24232;DHT22;12364;47.810;8.810;2023-07-13T07:54:15;23.30;93.70
24232;DHT22;12364;47.810;8.810;2023-07-13T07:57:02;23.30;92.70
24232;DHT22;12364;47.810;8.810;2023-07-13T07:59:49;23.30;92.70
24232;DHT22;12364;47.810;8.810;2023-07-13T08:02:19;23.40;92.50
24232;DHT22;12364;47.810;8.810;2023-07-13T08:04:49;23.50;91.80
24232;DHT22;12364;47.810;8.810;2023-07-13T08:07:19;23.50;92.00
24232;DHT22;12364;47.810;8.810;2023-07-13T08:09:46;23.50;91.00
24232;DHT22;12364;47.810;8.810;2023-07-13T08:12:13;23.60;92.00
24232;DHT22;12364;47.810;8.810;2023-07-13T08:14:43;23.60;92.40
24232;DHT22;12364;47.810;8.810;2023-07-13T08:17:19;23.70;91.10
24232;DHT22;12364;47.810;8.810;2023-07-13T08:19:47;23.70;88.70
24232;DHT22;12364;47.810;8.810;2023-07-13T08:22:14;23.80;90.60
24232;DHT22;12364;47.810;8.810;2023-07-13T08:24:41;23.80;90.60
24232;DHT22;12364;47.810;8.810;2023-07-13T08:27:12;23.80;90.50
24232;DHT22;12364;47.810;8.810;2023-07-13T08:29:39;23.80;88.40
24232;DHT22;12364;47.810;8.810;2023-07-13T08:32:06;23.80;89.20
24232;DHT22;12364;47.810;8.810;2023-07-13T08:34:36;23.90;88.90
24232;DHT22;12364;47.810;8.810;2023-07-13T08:37:03;23.90;89.40
24232;DHT22;12364;47.810;8.810;2023-07-13T08:39:31;23.90;90.00
24232;DHT22;12364;47.810;8.810;2023-07-13T08:42:00;23.90;90.50
24232;DHT22;12364;47.810;8.810;2023-07-13T08:44:40;24.00;91.40
24232;DHT22;12364;47.810;8.810;2023-07-13T08:47:11;24.00;91.30
24232;DHT22;12364;47.810;8.810;2023-07-13T08:49:38;24.00;90.90
24232;DHT22;12364;47.810;8.810;2023-07-13T08:52:08;24.00;90.80
24232;DHT22;12364;47.810;8.810;2023-07-13T08:54:38;24.00;91.20
24232;DHT22;12364;47.810;8.810;2023-07-13T08:57:11;24.10;91.50
24232;DHT22;12364;47.810;8.810;2023-07-13T08:59:39;24.10;91.90
24232;DHT22;12364;47.810;8.810;2023-07-13T09:04:41;24.20;92.40
24232;DHT22;12364;47.810;8.810;2023-07-13T09:09:45;24.20;94.70
24232;DHT22;12364;47.810;8.810;2023-07-13T09:12:19;24.20;95.10
24232;DHT22;12364;47.810;8.810;2023-07-13T09:14:50;24.20;95.20
24232;DHT22;12364;47.810;8.810;2023-07-13T09:17:29;24.20;94.80
24232;DHT22;12364;47.810;8.810;2023-07-13T09:19:58;24.30;94.60
24232;DHT22;12364;47.810;8.810;2023-07-13T09:22:31;24.20;94.70
24232;DHT22;12364;47.810;8.810;2023-07-13T09:27:38;24.20;94.90
24232;DHT22;12364;47.810;8.810;2023-07-13T09:32:36;24.20;95.00
24232;DHT22;12364;47.810;8.810;2023-07-13T09:35:11;24.20;94.80
24232;DHT22;12364;47.810;8.810;2023-07-13T09:37:39;24.20;94.70
24232;DHT22;12364;47.810;8.810;2023-07-13T09:40:11;24.20;94.30
24232;DHT22;12364;47.810;8.810;2023-07-13T09:42:40;24.20;94.50
24232;DHT22;12364;47.810;8.810;2023-07-13T09:45:07;24.20;94.30
24232;DHT22;12364;47.810;8.810;2023-07-13T09:47:39;24.20;93.70
24232;DHT22;12364;47.810;8.810;2023-07-13T09:50:08;24.20;93.80
24232;DHT22;12364;47.810;8.810;2023-07-13T09:52:54;24.20;93.70
24232;DHT22;12364;47.810;8.810;2023-07-13T09:55:26;24.30;94.00
24232;DHT22;12364;47.810;8.810;2023-07-13T09:57:55;24.30;94.10
24232;DHT22;12364;47.810;8.810;2023-07-13T10:00:26;24.30;94.10
24232;DHT22;12364;47.810;8.810;2023-07-13T10:02:57;24.20;93.70
24232;DHT22;12364;47.810;8.810;2023-07-13T10:05:25;24.20;94.00
24232;DHT22;12364;47.810;8.810;2023-07-13T10:07:53;24.20;94.30
24232;DHT22;12364;47.810;8.810;2023-07-13T10:10:23;24.20;93.50
24232;DHT22;12364;47.810;8.810;2023-07-13T10:12:50;24.30;93.70
24232;DHT22;12364;47.810;8.810;2023-07-13T10:15:19;24.20;93.60
24232;DHT22;12364;47.810;8.810;2023-07-13T10:17:51;24.20;91.80
24232;DHT22;12364;47.810;8.810;2023-07-13T10:20:19;24.20;91.60
24232;DHT22;12364;47.810;8.810;2023-07-13T10:25:29;24.20;91.70
24232;DHT22;12364;47.810;8.810;2023-07-13T10:27:58;24.30;91.40
24232;DHT22;12364;47.810;8.810;2023-07-13T10:30:30;24.30;91.50
24232;DHT22;12364;47.810;8.810;2023-07-13T10:33:00;24.40;90.90
24232;DHT22;12364;47.810;8.810;2023-07-13T10:35:28;24.40;91.60
24232;DHT22;12364;47.810;8.810;2023-07-13T10:40:28;24.50;90.00
24232;DHT22;12364;47.810;8.810;2023-07-13T10:42:57;24.40;90.20
24232;DHT22;12364;47.810;8.810;2023-07-13T10:45:25;24.40;90.50
24232;DHT22;12364;47.810;8.810;2023-07-13T10:47:53;24.30;89.80
24232;DHT22;12364;47.810;8.810;2023-07-13T10:50:23;24.30;89.80
24232;DHT22;12364;47.810;8.810;2023-07-13T10:52:53;24.40;89.10
24232;DHT22;12364;47.810;8.810;2023-07-13T10:55:38;24.40;89.00
24232;DHT22;12364;47.810;8.810;2023-07-13T10:58:20;24.50;89.70
24232;DHT22;12364;47.810;8.810;2023-07-13T11:00:53;24.50;89.90
24232;DHT22;12364;47.810;8.810;2023-07-13T11:03:23;24.60;88.90
24232;DHT22;12364;47.810;8.810;2023-07-13T11:05:51;24.70;89.70
24232;DHT22;12364;47.810;8.810;2023-07-13T11:08:53;24.70;88.80
24232;DHT22;12364;47.810;8.810;2023-07-13T11:18:52;24.80;88.50
24232;DHT22;12364;47.810;8.810;2023-07-13T11:21:22;24.80;89.20
24232;DHT22;12364;47.810;8.810;2023-07-13T11:24:02;24.80;89.60
24232;DHT22;12364;47.810;8.810;2023-07-13T11:26:39;24.80;90.20
24232;DHT22;12364;47.810;8.810;2023-07-13T11:31:55;24.90;90.30
24232;DHT22;12364;47.810;8.810;2023-07-13T11:34:30;24.90;90.80
24232;DHT22;12364;47.810;8.810;2023-07-13T11:36:58;25.00;90.70
24232;DHT22;12364;47.810;8.810;2023-07-13T11:39:28;25.00;90.50
24232;DHT22;12364;47.810;8.810;2023-07-13T11:41:58;25.00;90.70
24232;DHT22;12364;47.810;8.810;2023-07-13T11:44:28;25.10;91.10
24232;DHT22;12364;47.810;8.810;2023-07-13T11:46:55;25.20;91.40
24232;DHT22;12364;47.810;8.810;2023-07-13T11:49:24;25.10;91.10
24232;DHT22;12364;47.810;8.810;2023-07-13T11:51:51;25.20;91.10
24232;DHT22;12364;47.810;8.810;2023-07-13T11:54:26;25.20;91.60
24232;DHT22;12364;47.810;8.810;2023-07-13T11:56:55;25.30;91.80
24232;DHT22;12364;47.810;8.810;2023-07-13T11:59:22;25.30;92.10
24232;DHT22;12364;47.810;8.810;2023-07-13T12:01:51;25.30;92.00
24232;DHT22;12364;47.810;8.810;2023-07-13T12:04:22;25.40;91.50
24232;DHT22;12364;47.810;8.810;2023-07-13T12:07:03;25.50;91.60
24232;DHT22;12364;47.810;8.810;2023-07-13T12:09:30;25.50;91.30
24232;DHT22;12364;47.810;8.810;2023-07-13T12:11:58;25.60;91.20
24232;DHT22;12364;47.810;8.810;2023-07-13T12:14:28;25.60;91.50
24232;DHT22;12364;47.810;8.810;2023-07-13T12:16:55;25.70;91.60
24232;DHT22;12364;47.810;8.810;2023-07-13T12:19:23;25.80;91.40
24232;DHT22;12364;47.810;8.810;2023-07-13T12:21:53;25.80;91.60
24232;DHT22;12364;47.810;8.810;2023-07-13T12:24:21;25.80;91.30
24232;DHT22;12364;47.810;8.810;2023-07-13T12:29:19;25.90;91.10
24232;DHT22;12364;47.810;8.810;2023-07-13T12:31:48;25.90;90.70
24232;DHT22;12364;47.810;8.810;2023-07-13T12:34:16;25.90;91.50
24232;DHT22;12364;47.810;8.810;2023-07-13T12:36:50;25.90;91.40
24232;DHT22;12364;47.810;8.810;2023-07-13T12:41:45;26.00;91.50
24232;DHT22;12364;47.810;8.810;2023-07-13T12:44:13;26.00;91.10
24232;DHT22;12364;47.810;8.810;2023-07-13T12:46:51;26.00;91.00
24232;DHT22;12364;47.810;8.810;2023-07-13T12:49:21;26.00;91.10
24232;DHT22;12364;47.810;8.810;2023-07-13T12:51:50;26.00;91.10
24232;DHT22;12364;47.810;8.810;2023-07-13T12:54:18;26.00;91.00
24232;DHT22;12364;47.810;8.810;2023-07-13T12:56:48;26.00;91.40
24232;DHT22;12364;47.810;8.810;2023-07-13T12:59:20;26.00;91.20
24232;DHT22;12364;47.810;8.810;2023-07-13T13:01:47;26.00;91.00
24232;DHT22;12364;47.810;8.810;2023-07-13T13:04:16;26.00;91.50
24232;DHT22;12364;47.810;8.810;2023-07-13T13:06:44;26.00;91.40
24232;DHT22;12364;47.810;8.810;2023-07-13T13:09:11;26.00;90.90
24232;DHT22;12364;47.810;8.810;2023-07-13T13:11:40;26.00;90.90
24232;DHT22;12364;47.810;8.810;2023-07-13T13:14:07;26.00;90.80
24232;DHT22;12364;47.810;8.810;2023-07-13T13:16:37;25.80;90.90
24232;DHT22;12364;47.810;8.810;2023-07-13T13:19:15;25.80;91.00
24232;DHT22;12364;47.810;8.810;2023-07-13T13:21:43;25.80;91.30
24232;DHT22;12364;47.810;8.810;2023-07-13T13:24:13;25.80;91.60
24232;DHT22;12364;47.810;8.810;2023-07-13T13:26:41;25.80;91.50
24232;DHT22;12364;47.810;8.810;2023-07-13T13:29:12;25.90;91.50
24232;DHT22;12364;47.810;8.810;2023-07-13T13:31:40;25.90;91.60
24232;DHT22;12364;47.810;8.810;2023-07-13T13:34:11;26.00;91.50
24232;DHT22;12364;47.810;8.810;2023-07-13T13:36:38;26.00;91.00
24232;DHT22;12364;47.810;8.810;2023-07-13T13:39:10;26.00;91.00
24232;DHT22;12364;47.810;8.810;2023-07-13T13:41:42;26.00;90.70
24232;DHT22;12364;47.810;8.810;2023-07-13T13:44:09;26.00;91.00
24232;DHT22;12364;47.810;8.810;2023-07-13T13:46:36;26.10;90.10
24232;DHT22;12364;47.810;8.810;2023-07-13T13:49:04;26.10;89.30
24232;DHT22;12364;47.810;8.810;2023-07-13T13:51:31;26.20;89.50
24232;DHT22;12364;47.810;8.810;2023-07-13T13:53:58;26.30;88.00
24232;DHT22;12364;47.810;8.810;2023-07-13T13:56:25;26.40;88.10
24232;DHT22;12364;47.810;8.810;2023-07-13T13:58:52;26.40;84.70
24232;DHT22;12364;47.810;8.810;2023-07-13T14:01:20;26.30;85.00
24232;DHT22;12364;47.810;8.810;2023-07-13T14:03:47;26.40;86.90
24232;DHT22;12364;47.810;8.810;2023-07-13T14:06:20;26.30;90.30
24232;DHT22;12364;47.810;8.810;2023-07-13T14:08:47;26.30;90.50
24232;DHT22;12364;47.810;8.810;2023-07-13T14:11:16;26.20;90.80
24232;DHT22;12364;47.810;8.810;2023-07-13T14:13:50;26.20;90.70
24232;DHT22;12364;47.810;8.810;2023-07-13T14:16:19;26.20;90.60
24232;DHT22;12364;47.810;8.810;2023-07-13T14:18:47;26.20;90.70
24232;DHT22;12364;47.810;8.810;2023-07-13T14:21:15;26.20;90.60
24232;DHT22;12364;47.810;8.810;2023-07-13T14:23:43;26.10;91.20
24232;DHT22;12364;47.810;8.810;2023-07-13T14:26:11;26.10;90.90
24232;DHT22;12364;47.810;8.810;2023-07-13T14:28:43;26.10;90.90
24232;DHT22;12364;47.810;8.810;2023-07-13T14:31:11;26.10;90.60
24232;DHT22;12364;47.810;8.810;2023-07-13T14:33:39;26.20;91.10
24232;DHT22;12364;47.810;8.810;2023-07-13T14:36:49;26.20;90.70
24232;DHT22;12364;47.810;8.810;2023-07-13T14:38:56;26.30;90.00
24232;DHT22;12364;47.810;8.810;2023-07-13T14:41:24;26.30;89.70
24232;DHT22;12364;47.810;8.810;2023-07-13T14:43:51;26.30;88.70
24232;DHT22;12364;47.810;8.810;2023-07-13T14:46:26;26.40;89.70
24232;DHT22;12364;47.810;8.810;2023-07-13T14:49:04;26.40;89.80
24232;DHT22;12364;47.810;8.810;2023-07-13T14:51:32;26.40;90.00
24232;DHT22;12364;47.810;8.810;2023-07-13T14:54:01;26.30;89.00
24232;DHT22;12364;47.810;8.810;2023-07-13T14:56:29;26.40;90.00
24232;DHT22;12364;47.810;8.810;2023-07-13T14:58:56;26.40;90.00
24232;DHT22;12364;47.810;8.810;2023-07-13T15:01:23;26.40;89.40
24232;DHT22;12364;47.810;8.810;2023-07-13T15:03:50;26.40;89.30
24232;DHT22;12364;47.810;8.810;2023-07-13T15:06:18;26.40;88.90
24232;DHT22;12364;47.810;8.810;2023-07-13T15:08:46;26.50;89.10
24232;DHT22;12364;47.810;8.810;2023-07-13T15:11:13;26.50;87.70
24232;DHT22;12364;47.810;8.810;2023-07-13T15:13:40;26.50;87.40
24232;DHT22;12364;47.810;8.810;2023-07-13T15:16:13;26.50;85.80
24232;DHT22;12364;47.810;8.810;2023-07-13T15:18:41;26.50;84.70
24232;DHT22;12364;47.810;8.810;2023-07-13T15:21:09;26.40;82.80
24232;DHT22;12364;47.810;8.810;2023-07-13T15:23:37;26.50;82.30
24232;DHT22;12364;47.810;8.810;2023-07-13T15:26:04;26.50;81.50
24232;DHT22;12364;47.810;8.810;2023-07-13T15:28:31;26.50;79.10
24232;DHT22;12364;47.810;8.810;2023-07-13T15:30:58;26.50;78.80
24232;DHT22;12364;47.810;8.810;2023-07-13T15:33:28;26.60;77.70
24232;DHT22;12364;47.810;8.810;2023-07-13T15:35:56;26.60;78.20
24232;DHT22;12364;47.810;8.810;2023-07-13T15:38:27;26.60;77.90
24232;DHT22;12364;47.810;8.810;2023-07-13T15:40:54;26.60;77.10
24232;DHT22;12364;47.810;8.810;2023-07-13T15:43:22;26.60;74.60
24232;DHT22;12364;47.810;8.810;2023-07-13T15:45:49;26.60;70.40
24232;DHT22;12364;47.810;8.810;2023-07-13T15:48:19;26.60;68.10
24232;DHT22;12364;47.810;8.810;2023-07-13T15:50:48;26.60;70.80
24232;DHT22;12364;47.810;8.810;2023-07-13T15:53:19;26.50;75.10
24232;DHT22;12364;47.810;8.810;2023-07-13T15:55:46;26.60;76.60
24232;DHT22;12364;47.810;8.810;2023-07-13T15:58:13;26.60;75.30
24232;DHT22;12364;47.810;8.810;2023-07-13T16:00:42;26.70;76.30
24232;DHT22;12364;47.810;8.810;2023-07-13T16:03:09;26.70;77.60
24232;DHT22;12364;47.810;8.810;2023-07-13T16:05:36;26.70;78.70
24232;DHT22;12364;47.810;8.810;2023-07-13T16:08:05;26.70;77.40
24232;DHT22;12364;47.810;8.810;2023-07-13T16:13:01;26.80;75.70
24232;DHT22;12364;47.810;8.810;2023-07-13T16:15:28;26.80;72.40
24232;DHT22;12364;47.810;8.810;2023-07-13T16:17:55;26.80;72.80
24232;DHT22;12364;47.810;8.810;2023-07-13T16:20:22;26.90;74.50
24232;DHT22;12364;47.810;8.810;2023-07-13T16:22:51;27.00;73.30
24232;DHT22;12364;47.810;8.810;2023-07-13T16:25:21;27.00;73.00
24232;DHT22;12364;47.810;8.810;2023-07-13T16:27:50;27.50;61.30
24232;DHT22;12364;47.810;8.810;2023-07-13T16:30:22;29.60;57.80
24232;DHT22;12364;47.810;8.810;2023-07-13T16:32:51;30.60;60.20
24232;DHT22;12364;47.810;8.810;2023-07-13T16:35:22;30.40;58.00
24232;DHT22;12364;47.810;8.810;2023-07-13T16:37:49;30.00;57.90
24232;DHT22;12364;47.810;8.810;2023-07-13T16:40:32;29.70;57.30
24232;DHT22;12364;47.810;8.810;2023-07-13T16:43:00;29.50;56.60
24232;DHT22;12364;47.810;8.810;2023-07-13T16:45:32;29.20;55.20
24232;DHT22;12364;47.810;8.810;2023-07-13T16:48:05;29.00;56.10
24232;DHT22;12364;47.810;8.810;2023-07-13T16:50:37;28.60;56.90
24232;DHT22;12364;47.810;8.810;2023-07-13T16:53:08;28.40;57.30
24232;DHT22;12364;47.810;8.810;2023-07-13T16:55:37;28.20;58.20
24232;DHT22;12364;47.810;8.810;2023-07-13T16:58:04;28.00;58.00
24232;DHT22;12364;47.810;8.810;2023-07-13T17:00:33;27.90;57.70
24232;DHT22;12364;47.810;8.810;2023-07-13T17:03:04;27.70;58.00
24232;DHT22;12364;47.810;8.810;2023-07-13T17:05:40;27.60;58.50
24232;DHT22;12364;47.810;8.810;2023-07-13T17:08:17;27.40;60.20
24232;DHT22;12364;47.810;8.810;2023-07-13T17:10:52;27.30;58.90
24232;DHT22;12364;47.810;8.810;2023-07-13T17:13:24;27.30;58.90
24232;DHT22;12364;47.810;8.810;2023-07-13T17:15:52;27.30;60.50
24232;DHT22;12364;47.810;8.810;2023-07-13T17:18:23;27.20;62.00
24232;DHT22;12364;47.810;8.810;2023-07-13T17:20:51;27.10;63.60
24232;DHT22;12364;47.810;8.810;2023-07-13T17:23:19;27.10;64.40
24232;DHT22;12364;47.810;8.810;2023-07-13T17:25:47;27.10;62.80
24232;DHT22;12364;47.810;8.810;2023-07-13T17:28:15;27.00;64.20
24232;DHT22;12364;47.810;8.810;2023-07-13T17:30:43;27.00;65.40
24232;DHT22;12364;47.810;8.810;2023-07-13T17:33:24;26.90;66.20
24232;DHT22;12364;47.810;8.810;2023-07-13T17:35:53;26.90;66.40
24232;DHT22;12364;47.810;8.810;2023-07-13T17:38:21;26.90;66.00
24232;DHT22;12364;47.810;8.810;2023-07-13T17:40:48;26.90;67.80
24232;DHT22;12364;47.810;8.810;2023-07-13T17:43:15;26.90;67.50
24232;DHT22;12364;47.810;8.810;2023-07-13T17:45:42;26.90;66.60
24232;DHT22;12364;47.810;8.810;2023-07-13T17:48:10;26.90;67.80
24232;DHT22;12364;47.810;8.810;2023-07-13T17:50:38;26.90;67.50
24232;DHT22;12364;47.810;8.810;2023-07-13T17:53:13;26.90;68.40
24232;DHT22;12364;47.810;8.810;2023-07-13T17:55:40;26.90;69.90
24232;DHT22;12364;47.810;8.810;2023-07-13T17:58:07;27.00;69.40
24232;DHT22;12364;47.810;8.810;2023-07-13T18:00:36;27.00;70.90
24232;DHT22;12364;47.810;8.810;2023-07-13T18:03:11;27.00;70.70
24232;DHT22;12364;47.810;8.810;2023-07-13T18:05:40;27.10;69.90
24232;DHT22;12364;47.810;8.810;2023-07-13T18:08:41;27.10;69.50
24232;DHT22;12364;47.810;8.810;2023-07-13T18:11:01;27.10;68.90
24232;DHT22;12364;47.810;8.810;2023-07-13T18:13:29;27.10;67.90
24232;DHT22;12364;47.810;8.810;2023-07-13T18:16:00;27.20;68.00
24232;DHT22;12364;47.810;8.810;2023-07-13T18:18:28;27.20;70.90
24232;DHT22;12364;47.810;8.810;2023-07-13T18:20:55;27.20;70.30
24232;DHT22;12364;47.810;8.810;2023-07-13T18:23:23;27.30;70.30
24232;DHT22;12364;47.810;8.810;2023-07-13T18:25:50;27.30;69.50
24232;DHT22;12364;47.810;8.810;2023-07-13T18:28:19;27.30;72.00
24232;DHT22;12364;47.810;8.810;2023-07-13T18:30:50;27.30;70.00
24232;DHT22;12364;47.810;8.810;2023-07-13T18:33:18;27.30;69.30
24232;DHT22;12364;47.810;8.810;2023-07-13T18:35:46;27.30;71.70
24232;DHT22;12364;47.810;8.810;2023-07-13T18:38:23;27.30;71.30
24232;DHT22;12364;47.810;8.810;2023-07-13T18:40:52;27.30;71.80
24232;DHT22;12364;47.810;8.810;2023-07-13T18:43:21;27.30;71.60
24232;DHT22;12364;47.810;8.810;2023-07-13T18:45:58;27.20;72.60
24232;DHT22;12364;47.810;8.810;2023-07-13T18:48:27;27.20;71.70
24232;DHT22;12364;47.810;8.810;2023-07-13T18:50:56;27.20;72.30
24232;DHT22;12364;47.810;8.810;2023-07-13T18:53:24;27.20;72.90
24232;DHT22;12364;47.810;8.810;2023-07-13T18:55:53;27.10;72.90
24232;DHT22;12364;47.810;8.810;2023-07-13T18:58:20;27.10;72.80
24232;DHT22;12364;47.810;8.810;2023-07-13T19:00:51;27.00;72.40
24232;DHT22;12364;47.810;8.810;2023-07-13T19:03:25;27.00;72.40
24232;DHT22;12364;47.810;8.810;2023-07-13T19:05:53;26.90;72.30
24232;DHT22;12364;47.810;8.810;2023-07-13T19:08:27;26.80;72.40
24232;DHT22;12364;47.810;8.810;2023-07-13T19:10:54;26.80;72.50
24232;DHT22;12364;47.810;8.810;2023-07-13T19:13:25;26.70;72.70
24232;DHT22;12364;47.810;8.810;2023-07-13T19:15:53;26.70;72.50
24232;DHT22;12364;47.810;8.810;2023-07-13T19:18:21;26.60;73.50
24232;DHT22;12364;47.810;8.810;2023-07-13T19:20:49;26.60;73.80
24232;DHT22;12364;47.810;8.810;2023-07-13T19:25:48;26.40;73.50
24232;DHT22;12364;47.810;8.810;2023-07-13T19:30:49;26.30;74.60
24232;DHT22;12364;47.810;8.810;2023-07-13T19:33:16;26.20;74.70
24232;DHT22;12364;47.810;8.810;2023-07-13T19:35:43;26.10;74.70
24232;DHT22;12364;47.810;8.810;2023-07-13T19:38:14;26.10;74.80
24232;DHT22;12364;47.810;8.810;2023-07-13T19:40:41;26.00;74.40
24232;DHT22;12364;47.810;8.810;2023-07-13T19:43:11;25.90;74.80
24232;DHT22;12364;47.810;8.810;2023-07-13T19:45:38;25.80;74.40
24232;DHT22;12364;47.810;8.810;2023-07-13T19:48:05;25.80;75.20
24232;DHT22;12364;47.810;8.810;2023-07-13T19:50:34;25.70;74.80
24232;DHT22;12364;47.810;8.810;2023-07-13T19:53:02;25.70;75.40
24232;DHT22;12364;47.810;8.810;2023-07-13T19:55:29;25.60;76.00
24232;DHT22;12364;47.810;8.810;2023-07-13T19:57:57;25.50;77.70
24232;DHT22;12364;47.810;8.810;2023-07-13T20:00:25;25.50;78.90
24232;DHT22;12364;47.810;8.810;2023-07-13T20:02:52;25.40;78.20
24232;DHT22;12364;47.810;8.810;2023-07-13T20:05:20;25.40;77.90
24232;DHT22;12364;47.810;8.810;2023-07-13T20:07:49;25.40;77.80